Munising, MI

1:53 AM EDT on April 27, 2015 (GMT -0400)
APRSWXNET | | Change Station
CLOSE
Current Station
Personal Weather Station
Location: Munising, MI
Elevation: 636 ft
Nearby Weather Stations

Elev 636 ft 46.45 °N, 86.72 °W | Updated 30 minutes ago

Overcast
Overcast
37 °F
Feels Like 37 °F
N
0
Wind Variable Wind from NNE
Gusts 2.0 mph

Today
High -- | Low -- °F
--% Chance of Precip.
Yesterday
High -- | Low -- °F
Precip. -- in
6:39 AM 8:50 PM
Waxing Gibbous, 62% visible
Pressure 30.09 in
Visibility 10.0 miles
Clouds Overcast 5500 ft
Windchill 37 °F
Dew Point 34 °F
Humidity 87%
Rainfall in
Snow Depth Not available.
UV 0 out of 12
Pollen 10.10 out of 12
Air Quality Not available.
Flu Activity Regional
METAR KSAW 270537Z AUTO 01011KT 10SM OVC055 06/M02 A3009 RMK AO2 T00611018

More Conditions Fewer Conditions

Pressure 30.09 in
Visibility 10.0 miles
Clouds Overcast 5500 ft
Windchill 37 °F
Dew Point 34 °F
Humidity 87%
Rainfall in
Snow Depth Not available.
UV 0 out of 12
Pollen 10.10 out of 12
Air Quality Not available.
Flu Activity Regional
METAR KSAW 270537Z AUTO 01011KT 10SM OVC055 06/M02 A3009 RMK AO2 T00611018

More Conditions Fewer Conditions

The full scope of the disaster following a powerful 7.8-magnitude earthquake in Nepal may not come into view for days, but global charities are already sending emergency aid. Click to see how you can help.

10-Day Weather Forecast

Almanac

Astronomy

Apr. 27, 2015 Rise Set
Actual Time
Civil Twilight
Nautical Twilight
Astronomical Twilight
Moon
Length of Visible Light
Length of Day
Tomorrow will be .
, % of the Moon is Illuminated

Today's Extremes

State Highs State Lows

Community

WunderPhotos

Upload Photos

1,817,267 photos uploaded!

WunderBlogs® & News

Nearby

Air Quality

  Air Quality AQ Index Pollutant
Not available.

Snow Depth

Station Depth Elevation

Earthquake Activity

City Distance Mag. Time & Date
Minimum magnitude displayed is 2.5.

Coastal Water Temperatures

Place Temperature

Stations

Nearby Weather Stations

Station Location Temp. Windchill Dew Point Humidity Wind Precip. Elev Updated Type